Time;durP1;ratioP1;P1;durP2;ratioP2;P2;SDS_P1;SDS_P2;PMS_P1;PMS_P2;Temp;Humidity;BMP_temperature;BMP_pressure;BME280_temperature;BME280_humidity;BME280_pressure;Samples;Min_cycle;Max_cycle;Signal;HPM_P1;HPM_P2
2022/04/27 00:00:59;;;;;;;7.40;4.43;;;;;;;;;;4993402;28;20033;-75
2022/04/27 00:03:25;;;;;;;8.48;4.65;;;;;;;;;;4992742;28;20036;-75
2022/04/27 00:05:51;;;;;;;6.30;4.78;;;;;;;;;;4992646;28;20035;-75
2022/04/27 00:08:18;;;;;;;6.30;4.88;;;;;;;;;;4992585;28;20056;-75
2022/04/27 00:10:44;;;;;;;10.32;5.40;;;;;;;;;;4992731;28;20108;-75
2022/04/27 00:13:14;;;;;;;7.03;4.93;;;;;;;;;;4993472;28;20041;-75
2022/04/27 00:15:40;;;;;;;11.38;5.22;;;;;;;;;;4992523;28;20519;-74
2022/04/27 00:18:07;;;;;;;7.03;4.40;;;;;;;;;;4992416;28;20068;-75
2022/04/27 00:20:33;;;;;;;8.35;5.30;;;;;;;;;;4986513;28;20036;-75
2022/04/27 00:22:59;;;;;;;8.35;4.93;;;;;;;;;;4978992;28;20039;-75
2022/04/27 00:25:26;;;;;;;8.32;5.18;;;;;;;;;;4994111;28;20046;-74
2022/04/27 00:27:52;;;;;;;9.95;5.97;;;;;;;;;;4990652;28;20127;-75
2022/04/27 00:30:19;;;;;;;7.13;5.05;;;;;;;;;;4990160;28;20487;-75
2022/04/27 00:32:45;;;;;;;6.93;5.22;;;;;;;;;;4990383;28;20034;-75
2022/04/27 00:35:11;;;;;;;10.95;5.25;;;;;;;;;;4991275;28;20019;-75
2022/04/27 00:37:38;;;;;;;9.63;5.10;;;;;;;;;;4993695;28;20026;-75
2022/04/27 00:40:04;;;;;;;11.57;5.20;;;;;;;;;;4994689;28;20030;-75
2022/04/27 00:42:31;;;;;;;6.43;5.35;;;;;;;;;;4994348;28;20022;-75
2022/04/27 00:44:57;;;;;;;9.32;5.80;;;;;;;;;;4993792;28;20062;-75
2022/04/27 00:47:23;;;;;;;9.65;5.70;;;;;;;;;;4994347;28;20071;-75
2022/04/27 00:49:51;;;;;;;7.38;5.55;;;;;;;;;;4994558;28;20038;-75
2022/04/27 00:52:18;;;;;;;10.07;6.00;;;;;;;;;;4994504;28;20064;-75
2022/04/27 00:54:46;;;;;;;6.85;5.32;;;;;;;;;;4994417;28;20026;-75
2022/04/27 00:57:13;;;;;;;9.05;5.40;;;;;;;;;;4993992;28;20021;-74
2022/04/27 00:59:39;;;;;;;8.77;5.28;;;;;;;;;;4993892;28;20499;-75
2022/04/27 01:02:06;;;;;;;12.50;5.50;;;;;;;;;;4993980;28;20025;-74
2022/04/27 01:04:36;;;;;;;12.45;5.28;;;;;;;;;;4993983;28;20491;-75
2022/04/27 01:07:03;;;;;;;8.70;5.70;;;;;;;;;;4993754;28;20038;-75
2022/04/27 01:09:30;;;;;;;7.78;4.80;;;;;;;;;;4993885;28;20037;-75
2022/04/27 01:12:01;;;;;;;10.80;5.22;;;;;;;;;;4994020;28;20014;-75
2022/04/27 01:14:27;;;;;;;10.65;5.82;;;;;;;;;;4993601;28;20023;-75
2022/04/27 01:16:54;;;;;;;9.90;5.60;;;;;;;;;;4993639;28;20030;-75
2022/04/27 01:19:23;;;;;;;8.60;5.75;;;;;;;;;;4994047;28;20026;-75
2022/04/27 01:21:54;;;;;;;8.38;5.80;;;;;;;;;;4989426;28;20038;-74
2022/04/27 01:24:24;;;;;;;11.00;5.70;;;;;;;;;;4989164;28;20044;-75
2022/04/27 01:26:51;;;;;;;7.15;5.30;;;;;;;;;;4988985;28;20034;-75
2022/04/27 01:29:18;;;;;;;11.35;5.80;;;;;;;;;;4989278;28;20057;-75
2022/04/27 01:31:45;;;;;;;8.38;5.95;;;;;;;;;;4993751;28;20030;-74
2022/04/27 01:34:12;;;;;;;10.55;5.80;;;;;;;;;;4989609;28;20019;-74
2022/04/27 01:36:38;;;;;;;9.90;5.78;;;;;;;;;;4988898;28;20029;-75
2022/04/27 01:39:05;;;;;;;8.90;5.95;;;;;;;;;;4993049;28;20026;-75
2022/04/27 01:41:31;;;;;;;13.57;6.07;;;;;;;;;;4987827;28;20019;-75
2022/04/27 01:43:57;;;;;;;8.55;5.53;;;;;;;;;;4991416;28;20057;-75
2022/04/27 01:46:24;;;;;;;10.00;6.03;;;;;;;;;;4990458;28;20022;-75
2022/04/27 01:48:51;;;;;;;7.28;5.18;;;;;;;;;;4989010;28;20561;-75
2022/04/27 01:54:14;;;;;;;10.88;5.93;;;;;;;;;;4988344;28;20027;-75
2022/04/27 01:54:15;;;;;;;10.63;6.22;;;;;;;;;;4989007;28;20500;-75
2022/04/27 01:56:43;;;;;;;10.77;5.93;;;;;;;;;;4988539;28;20018;-75
2022/04/27 01:59:09;;;;;;;9.80;5.80;;;;;;;;;;4990138;28;20031;-75
2022/04/27 02:01:36;;;;;;;6.93;5.60;;;;;;;;;;4991946;28;20018;-75
2022/04/27 02:04:02;;;;;;;9.98;5.60;;;;;;;;;;4989194;28;20506;-75
2022/04/27 02:06:29;;;;;;;10.00;6.05;;;;;;;;;;4987869;28;20018;-74
2022/04/27 02:08:55;;;;;;;9.20;5.93;;;;;;;;;;4988236;28;20095;-75
2022/04/27 02:11:24;;;;;;;8.68;6.07;;;;;;;;;;4988324;28;20049;-75
2022/04/27 02:13:54;;;;;;;7.88;5.85;;;;;;;;;;4992346;28;20023;-75
2022/04/27 02:16:24;;;;;;;9.77;6.00;;;;;;;;;;4989683;28;20031;-75
2022/04/27 02:18:51;;;;;;;9.55;6.30;;;;;;;;;;4987059;28;20028;-75
2022/04/27 02:21:17;;;;;;;10.15;5.97;;;;;;;;;;4988063;28;20022;-75
2022/04/27 02:23:47;;;;;;;9.82;6.20;;;;;;;;;;4988129;28;20026;-74
2022/04/27 02:26:13;;;;;;;11.65;6.60;;;;;;;;;;4988868;28;20019;-75
2022/04/27 02:28:40;;;;;;;7.68;6.03;;;;;;;;;;4991730;28;20036;-75
2022/04/27 02:31:07;;;;;;;10.82;6.40;;;;;;;;;;4988569;28;20026;-75
2022/04/27 02:33:34;;;;;;;8.85;6.18;;;;;;;;;;4987899;28;20018;-75
2022/04/27 02:36:00;;;;;;;9.05;6.38;;;;;;;;;;4987803;28;20030;-75
2022/04/27 02:38:27;;;;;;;9.27;6.03;;;;;;;;;;4987801;28;20017;-75
2022/04/27 02:40:54;;;;;;;8.00;6.38;;;;;;;;;;4991786;28;20030;-75
2022/04/27 02:43:21;;;;;;;9.65;6.00;;;;;;;;;;4989294;28;20015;-75
2022/04/27 02:45:48;;;;;;;7.80;5.90;;;;;;;;;;4987125;28;20050;-75
2022/04/27 02:48:15;;;;;;;8.23;5.88;;;;;;;;;;4987651;28;20406;-74
2022/04/27 02:53:26;;;;;;;7.97;6.30;;;;;;;;;;4987569;28;20053;-75
2022/04/27 02:55:52;;;;;;;10.48;6.50;;;;;;;;;;4992135;28;20018;-74
2022/04/27 02:58:19;;;;;;;10.57;6.18;;;;;;;;;;4992017;28;20030;-75
2022/04/27 03:00:45;;;;;;;12.77;6.68;;;;;;;;;;4992323;28;20034;-75
2022/04/27 03:03:12;;;;;;;8.00;5.93;;;;;;;;;;4991607;28;20036;-74
2022/04/27 03:05:38;;;;;;;8.05;6.40;;;;;;;;;;4991756;28;20037;-74
2022/04/27 03:08:05;;;;;;;8.30;5.95;;;;;;;;;;4992036;28;20042;-75
2022/04/27 03:10:31;;;;;;;12.32;5.90;;;;;;;;;;4991878;28;20029;-75
2022/04/27 03:12:59;;;;;;;9.50;6.32;;;;;;;;;;4992542;28;20387;-75
2022/04/27 03:15:25;;;;;;;14.82;6.40;;;;;;;;;;4991929;28;20043;-74
2022/04/27 03:20:37;;;;;;;13.77;6.80;;;;;;;;;;5006840;28;20042;-75
2022/04/27 03:23:03;;;;;;;9.13;5.80;;;;;;;;;;4989405;28;20026;-74
2022/04/27 03:25:29;;;;;;;10.80;6.70;;;;;;;;;;4990327;28;20042;-75
2022/04/27 03:27:56;;;;;;;8.15;6.18;;;;;;;;;;4987920;28;20027;-74
2022/04/27 03:30:22;;;;;;;11.80;6.15;;;;;;;;;;4989404;28;20518;-75
2022/04/27 03:32:48;;;;;;;9.38;6.03;;;;;;;;;;4990854;28;20406;-75
2022/04/27 03:35:15;;;;;;;7.75;6.40;;;;;;;;;;4995654;28;20468;-75
2022/04/27 03:37:41;;;;;;;9.55;6.03;;;;;;;;;;4995697;28;22269;-75
2022/04/27 03:40:09;;;;;;;7.70;6.38;;;;;;;;;;4995934;28;20030;-74
2022/04/27 03:42:36;;;;;;;12.57;6.85;;;;;;;;;;4995292;28;20032;-75
2022/04/27 03:45:02;;;;;;;8.10;6.13;;;;;;;;;;4995049;28;20072;-74
2022/04/27 03:47:29;;;;;;;7.72;6.43;;;;;;;;;;4994676;28;20037;-74
2022/04/27 03:49:59;;;;;;;8.23;6.05;;;;;;;;;;4995501;28;20027;-75
2022/04/27 03:52:26;;;;;;;7.40;5.97;;;;;;;;;;5008783;28;20030;-75
2022/04/27 03:54:52;;;;;;;8.88;6.65;;;;;;;;;;4995494;28;20384;-75
2022/04/27 03:57:18;;;;;;;7.95;5.85;;;;;;;;;;4995064;28;20023;-75
2022/04/27 03:59:45;;;;;;;9.48;6.18;;;;;;;;;;4995015;28;20030;-74
2022/04/27 04:02:11;;;;;;;10.40;6.38;;;;;;;;;;4994745;28;20021;-74
2022/04/27 04:04:38;;;;;;;11.40;6.55;;;;;;;;;;4995037;28;20043;-75
2022/04/27 04:07:04;;;;;;;9.55;6.28;;;;;;;;;;4995212;28;20022;-74
2022/04/27 04:09:30;;;;;;;11.75;7.05;;;;;;;;;;4994731;28;20033;-74
2022/04/27 04:11:57;;;;;;;7.35;6.22;;;;;;;;;;4994880;28;20037;-74
2022/04/27 04:14:23;;;;;;;9.80;6.60;;;;;;;;;;4994801;28;20029;-75
2022/04/27 04:16:49;;;;;;;8.95;6.35;;;;;;;;;;4994614;28;20028;-75
2022/04/27 04:19:17;;;;;;;9.77;6.55;;;;;;;;;;4994993;28;20036;-74
2022/04/27 04:21:43;;;;;;;9.93;6.97;;;;;;;;;;4995085;28;20100;-74
2022/04/27 04:24:09;;;;;;;7.97;6.47;;;;;;;;;;4994668;28;20022;-75
2022/04/27 04:29:21;;;;;;;10.23;5.88;;;;;;;;;;4994268;28;20030;-74
2022/04/27 04:31:47;;;;;;;9.18;6.40;;;;;;;;;;4994335;28;20072;-75
2022/04/27 04:34:14;;;;;;;10.27;6.07;;;;;;;;;;4995374;28;20041;-75
2022/04/27 04:36:40;;;;;;;10.85;6.85;;;;;;;;;;4994406;28;20018;-74
2022/04/27 04:39:06;;;;;;;10.20;7.00;;;;;;;;;;4994349;28;20019;-75
2022/04/27 04:41:33;;;;;;;11.55;6.53;;;;;;;;;;4993446;28;20377;-75
2022/04/27 04:43:59;;;;;;;9.00;7.03;;;;;;;;;;4994158;28;20282;-74
2022/04/27 04:46:26;;;;;;;9.20;6.45;;;;;;;;;;4994058;28;20038;-75
2022/04/27 04:48:52;;;;;;;8.68;6.22;;;;;;;;;;4994437;28;20133;-74
2022/04/27 04:51:18;;;;;;;10.65;6.30;;;;;;;;;;4994030;28;20380;-74
2022/04/27 04:53:45;;;;;;;8.88;6.75;;;;;;;;;;4994126;28;20030;-75
2022/04/27 04:56:11;;;;;;;7.85;6.43;;;;;;;;;;4994130;28;20023;-74
2022/04/27 04:58:37;;;;;;;10.32;6.45;;;;;;;;;;4993955;28;20023;-74
2022/04/27 05:01:04;;;;;;;8.70;6.53;;;;;;;;;;4994122;28;20390;-74
2022/04/27 05:03:34;;;;;;;12.77;6.95;;;;;;;;;;4993840;28;20030;-74
2022/04/27 05:06:00;;;;;;;9.63;6.63;;;;;;;;;;4993679;28;20493;-74
2022/04/27 05:08:26;;;;;;;8.35;6.30;;;;;;;;;;4993578;28;20035;-74
2022/04/27 05:10:54;;;;;;;7.85;6.05;;;;;;;;;;4994179;28;20023;-75
2022/04/27 05:13:20;;;;;;;11.85;6.32;;;;;;;;;;4993842;28;20033;-75
2022/04/27 05:15:46;;;;;;;7.78;5.95;;;;;;;;;;4997209;28;20373;-74
2022/04/27 05:18:13;;;;;;;10.20;6.43;;;;;;;;;;4989969;28;20027;-74
2022/04/27 05:20:39;;;;;;;8.07;6.30;;;;;;;;;;4993503;28;20499;-74
2022/04/27 05:23:06;;;;;;;9.48;6.10;;;;;;;;;;4993912;28;20036;-74
2022/04/27 05:25:34;;;;;;;10.75;6.90;;;;;;;;;;4992269;28;20035;-74
2022/04/27 05:28:04;;;;;;;8.70;6.50;;;;;;;;;;4993419;28;20458;-75
2022/04/27 05:33:18;;;;;;;10.05;6.47;;;;;;;;;;4993389;28;20023;-75
2022/04/27 05:35:45;;;;;;;8.77;7.05;;;;;;;;;;4993286;28;20026;-74
2022/04/27 05:38:12;;;;;;;8.15;6.57;;;;;;;;;;4993478;28;20022;-74
2022/04/27 05:40:43;;;;;;;12.73;7.47;;;;;;;;;;4993201;28;20053;-74
2022/04/27 05:43:10;;;;;;;12.35;7.53;;;;;;;;;;4993639;28;20030;-74
2022/04/27 05:45:37;;;;;;;9.63;7.07;;;;;;;;;;4992888;28;20427;-74
2022/04/27 05:48:03;;;;;;;9.77;7.05;;;;;;;;;;4992888;28;20030;-75
2022/04/27 05:50:29;;;;;;;8.57;7.00;;;;;;;;;;4993008;28;20033;-74
2022/04/27 05:52:58;;;;;;;10.07;6.57;;;;;;;;;;4992995;28;20092;-75
2022/04/27 05:55:25;;;;;;;9.48;6.68;;;;;;;;;;4992992;28;20486;-74
2022/04/27 05:57:51;;;;;;;8.32;6.10;;;;;;;;;;4993035;28;20026;-74
2022/04/27 06:00:19;;;;;;;9.23;6.57;;;;;;;;;;4992711;28;20036;-74
2022/04/27 06:02:46;;;;;;;12.88;5.68;;;;;;;;;;4992811;28;20034;-75
2022/04/27 06:05:12;;;;;;;18.98;12.48;;;;;;;;;;4992787;28;20026;-75
2022/04/27 06:07:38;;;;;;;8.68;5.30;;;;;;;;;;4991098;28;20044;-74
2022/04/27 06:10:06;;;;;;;8.10;5.70;;;;;;;;;;4988466;28;20045;-75
2022/04/27 06:12:36;;;;;;;9.15;5.55;;;;;;;;;;4992022;28;20041;-75
2022/04/27 06:15:03;;;;;;;8.52;5.63;;;;;;;;;;4987975;28;20026;-75
2022/04/27 06:17:30;;;;;;;8.57;4.82;;;;;;;;;;4991722;28;20396;-75
2022/04/27 06:19:57;;;;;;;6.25;5.47;;;;;;;;;;4992160;28;20018;-75
2022/04/27 06:22:24;;;;;;;7.72;5.15;;;;;;;;;;4990885;28;20038;-75
2022/04/27 06:24:50;;;;;;;6.70;4.60;;;;;;;;;;4990030;28;20027;-73
2022/04/27 06:27:16;;;;;;;6.03;4.50;;;;;;;;;;4989618;28;20045;-72
2022/04/27 06:29:43;;;;;;;5.68;4.45;;;;;;;;;;4987502;28;20029;-72
2022/04/27 06:32:10;;;;;;;6.93;4.07;;;;;;;;;;4987511;28;20045;-72
2022/04/27 06:34:36;;;;;;;8.07;4.28;;;;;;;;;;5005650;28;20041;-72
2022/04/27 06:37:02;;;;;;;10.90;4.63;;;;;;;;;;4991608;28;20484;-73
2022/04/27 06:39:29;;;;;;;8.45;4.57;;;;;;;;;;4991933;28;20038;-73
2022/04/27 06:41:55;;;;;;;8.68;4.63;;;;;;;;;;4997279;28;20489;-73
2022/04/27 06:44:21;;;;;;;5.70;4.22;;;;;;;;;;4996751;28;20050;-73
2022/04/27 06:46:48;;;;;;;9.35;4.30;;;;;;;;;;4991357;28;20060;-74
2022/04/27 06:49:14;;;;;;;5.30;4.28;;;;;;;;;;4988321;28;20048;-73
2022/04/27 06:51:41;;;;;;;8.43;3.90;;;;;;;;;;4991299;28;20040;-73
2022/04/27 06:54:07;;;;;;;5.65;4.07;;;;;;;;;;4991728;28;20026;-73
2022/04/27 06:56:33;;;;;;;6.20;4.00;;;;;;;;;;4987168;28;20499;-73
2022/04/27 06:59:00;;;;;;;5.30;3.97;;;;;;;;;;4989461;28;20027;-73
2022/04/27 07:01:26;;;;;;;8.23;4.43;;;;;;;;;;4989406;28;20022;-73
2022/04/27 07:03:55;;;;;;;5.85;4.25;;;;;;;;;;4986058;28;20029;-73
2022/04/27 07:06:22;;;;;;;5.88;4.32;;;;;;;;;;4991289;28;20101;-73
2022/04/27 07:08:49;;;;;;;6.50;4.10;;;;;;;;;;4991299;28;20038;-73
2022/04/27 07:11:15;;;;;;;5.38;3.92;;;;;;;;;;4991094;28;20025;-73
2022/04/27 07:13:41;;;;;;;7.35;5.07;;;;;;;;;;4990320;28;20022;-74
2022/04/27 07:16:08;;;;;;;5.75;3.83;;;;;;;;;;4991928;28;20048;-73
2022/04/27 07:18:34;;;;;;;5.20;4.03;;;;;;;;;;4987204;28;20030;-74
2022/04/27 07:21:01;;;;;;;4.22;3.63;;;;;;;;;;4987508;28;20475;-74
2022/04/27 07:23:27;;;;;;;7.20;3.78;;;;;;;;;;4987172;28;20027;-74
2022/04/27 07:25:53;;;;;;;4.95;3.63;;;;;;;;;;4990811;28;20500;-73
2022/04/27 07:28:20;;;;;;;4.95;3.83;;;;;;;;;;4991107;28;20490;-74
2022/04/27 07:30:46;;;;;;;4.75;3.67;;;;;;;;;;4990832;28;20031;-74
2022/04/27 07:33:12;;;;;;;6.63;3.53;;;;;;;;;;4984096;28;20041;-73
2022/04/27 07:35:39;;;;;;;3.90;3.53;;;;;;;;;;4998327;28;20033;-73
2022/04/27 07:38:05;;;;;;;4.45;3.60;;;;;;;;;;4991075;28;20399;-73
2022/04/27 07:40:32;;;;;;;4.00;3.60;;;;;;;;;;5004529;28;20034;-74
2022/04/27 07:42:59;;;;;;;3.85;3.13;;;;;;;;;;4990638;28;20446;-74
2022/04/27 07:45:26;;;;;;;3.80;3.50;;;;;;;;;;4984168;28;20034;-73
2022/04/27 07:47:52;;;;;;;5.22;3.65;;;;;;;;;;4994404;28;20025;-73
2022/04/27 07:50:19;;;;;;;3.53;3.22;;;;;;;;;;4998010;28;20030;-74
2022/04/27 07:52:46;;;;;;;4.80;3.40;;;;;;;;;;4997233;28;20390;-74
2022/04/27 07:55:12;;;;;;;5.63;3.55;;;;;;;;;;4991604;28;20038;-73
2022/04/27 07:57:39;;;;;;;6.90;3.40;;;;;;;;;;4985380;28;20030;-73
2022/04/27 08:00:07;;;;;;;6.43;3.13;;;;;;;;;;4990703;28;20037;-73
2022/04/27 08:02:33;;;;;;;4.00;3.53;;;;;;;;;;4990267;28;20027;-71
2022/04/27 08:05:01;;;;;;;4.05;3.50;;;;;;;;;;4991710;28;20026;-72
2022/04/27 08:07:34;;;;;;;5.15;3.85;;;;;;;;;;4988229;28;20049;-72
2022/04/27 08:10:05;;;;;;;4.57;3.45;;;;;;;;;;4992561;28;20505;-72
2022/04/27 08:12:32;;;;;;;3.95;3.40;;;;;;;;;;4987960;28;20026;-72
2022/04/27 08:14:58;;;;;;;5.00;3.35;;;;;;;;;;4992562;28;20048;-72
2022/04/27 08:17:24;;;;;;;9.32;3.50;;;;;;;;;;4988333;28;20495;-72
2022/04/27 08:21:13;;;;;;;4.47;3.20;;;;;;;;;;4994097;28;20046;-72
2022/04/27 08:22:37;;;;;;;6.65;3.30;;;;;;;;;;4992867;28;20026;-72
2022/04/27 08:25:04;;;;;;;5.40;3.30;;;;;;;;;;4993484;28;20024;-72
2022/04/27 08:27:30;;;;;;;6.43;3.50;;;;;;;;;;4990716;28;20072;-72
2022/04/27 08:29:56;;;;;;;5.47;3.20;;;;;;;;;;4997189;28;20040;-72
2022/04/27 08:32:23;;;;;;;4.38;3.17;;;;;;;;;;5000156;28;20031;-72
2022/04/27 08:34:52;;;;;;;3.58;3.13;;;;;;;;;;4993655;28;20027;-72
2022/04/27 08:37:19;;;;;;;5.07;3.80;;;;;;;;;;5005628;28;20496;-72
2022/04/27 08:39:45;;;;;;;5.40;3.10;;;;;;;;;;4994120;28;20076;-72
2022/04/27 08:42:12;;;;;;;3.95;3.65;;;;;;;;;;5006968;28;20030;-72
2022/04/27 08:44:39;;;;;;;4.07;3.38;;;;;;;;;;4994575;28;20520;-72
2022/04/27 08:47:05;;;;;;;6.90;3.42;;;;;;;;;;4993745;28;20026;-72
2022/04/27 08:49:35;;;;;;;6.50;3.45;;;;;;;;;;4993544;28;20026;-72
2022/04/27 08:52:02;;;;;;;7.20;3.30;;;;;;;;;;4992561;28;20381;-72
2022/04/27 08:54:29;;;;;;;4.35;3.38;;;;;;;;;;4989093;28;20385;-72
2022/04/27 08:56:55;;;;;;;4.57;4.03;;;;;;;;;;4989242;28;20028;-72
2022/04/27 08:59:22;;;;;;;7.25;3.60;;;;;;;;;;4988392;28;20085;-72
2022/04/27 09:01:48;;;;;;;4.63;3.28;;;;;;;;;;4992537;28;20399;-72
2022/04/27 09:04:16;;;;;;;3.67;3.30;;;;;;;;;;4993359;28;20033;-72
2022/04/27 09:06:44;;;;;;;6.13;3.38;;;;;;;;;;4992839;28;20048;-72
2022/04/27 09:09:31;;;;;;;4.18;3.35;;;;;;;;;;4993218;28;20072;-72
2022/04/27 09:11:57;;;;;;;7.20;3.45;;;;;;;;;;4992608;28;20022;-72
2022/04/27 09:14:35;;;;;;;4.97;3.25;;;;;;;;;;4991491;28;20380;-72
2022/04/27 09:22:44;;;;;;;8.20;3.30;;;;;;;;;;4995402;28;20155;-72
2022/04/27 09:25:11;;;;;;;6.82;2.83;;;;;;;;;;4993793;28;20033;-72
2022/04/27 09:27:37;;;;;;;7.93;3.40;;;;;;;;;;4991949;28;20034;-72
2022/04/27 09:30:07;;;;;;;5.32;3.00;;;;;;;;;;4991656;28;20509;-72
2022/04/27 09:32:34;;;;;;;3.47;3.17;;;;;;;;;;4991313;28;20034;-72
2022/04/27 09:35:03;;;;;;;3.20;2.50;;;;;;;;;;4990043;28;20030;-72
2022/04/27 09:37:32;;;;;;;2.97;2.65;;;;;;;;;;4989428;28;20026;-72
2022/04/27 09:40:01;;;;;;;4.13;2.63;;;;;;;;;;4991918;28;20057;-72
2022/04/27 09:42:35;;;;;;;5.65;2.60;;;;;;;;;;4987682;28;20030;-72
2022/04/27 09:45:21;;;;;;;3.22;2.17;;;;;;;;;;4992016;28;20043;-72
2022/04/27 09:47:48;;;;;;;2.47;2.25;;;;;;;;;;4992346;28;20026;-72
2022/04/27 09:50:15;;;;;;;3.65;2.60;;;;;;;;;;4992360;28;20029;-74
2022/04/27 09:52:41;;;;;;;2.40;2.20;;;;;;;;;;4992672;28;20024;-72
2022/04/27 09:55:08;;;;;;;2.58;2.08;;;;;;;;;;4998838;28;20026;-72
2022/04/27 09:57:38;;;;;;;3.38;2.20;;;;;;;;;;4988859;28;20033;-72
2022/04/27 10:00:05;;;;;;;4.80;2.35;;;;;;;;;;4986429;28;20030;-72
2022/04/27 10:02:34;;;;;;;5.90;2.50;;;;;;;;;;4991427;28;20019;-72
2022/04/27 10:05:01;;;;;;;4.68;2.70;;;;;;;;;;4992092;28;20487;-72
2022/04/27 10:07:32;;;;;;;4.15;2.00;;;;;;;;;;4992558;28;20037;-72
2022/04/27 10:09:59;;;;;;;3.85;2.28;;;;;;;;;;4993026;28;20049;-72
2022/04/27 10:12:26;;;;;;;2.40;2.05;;;;;;;;;;4991167;28;20019;-72
2022/04/27 10:14:52;;;;;;;4.25;2.00;;;;;;;;;;4987947;28;20030;-72
2022/04/27 10:17:18;;;;;;;2.53;1.90;;;;;;;;;;4988375;28;20022;-72
2022/04/27 10:19:45;;;;;;;3.28;1.90;;;;;;;;;;4991880;28;20041;-72
2022/04/27 10:22:30;;;;;;;4.30;1.90;;;;;;;;;;4992668;28;20021;-72
2022/04/27 10:24:57;;;;;;;2.45;1.90;;;;;;;;;;4992347;28;20488;-72
2022/04/27 10:27:33;;;;;;;3.75;2.13;;;;;;;;;;4989469;28;20475;-72
2022/04/27 10:30:01;;;;;;;2.65;1.83;;;;;;;;;;4991922;28;20407;-71
2022/04/27 10:32:40;;;;;;;3.25;1.88;;;;;;;;;;4988472;28;20027;-71
2022/04/27 10:35:19;;;;;;;3.15;1.90;;;;;;;;;;4989544;28;20019;-72
2022/04/27 10:37:46;;;;;;;2.88;1.80;;;;;;;;;;4976687;28;20028;-72
2022/04/27 10:40:26;;;;;;;2.15;1.80;;;;;;;;;;4984800;28;20466;-73
2022/04/27 10:42:52;;;;;;;2.83;2.13;;;;;;;;;;4991040;28;20027;-72
2022/04/27 10:45:24;;;;;;;2.25;1.90;;;;;;;;;;4990112;28;20203;-73
2022/04/27 10:47:51;;;;;;;3.25;2.17;;;;;;;;;;4990033;28;20152;-72
2022/04/27 10:50:18;;;;;;;2.75;1.90;;;;;;;;;;4990937;28;20014;-72
2022/04/27 10:52:52;;;;;;;4.88;1.80;;;;;;;;;;4991473;28;20036;-72
2022/04/27 10:55:45;;;;;;;2.90;1.80;;;;;;;;;;4989573;28;20024;-72
2022/04/27 10:58:15;;;;;;;3.17;1.95;;;;;;;;;;4989609;28;20045;-72
2022/04/27 11:01:02;;;;;;;2.90;1.85;;;;;;;;;;4991143;28;20026;-72
2022/04/27 11:03:30;;;;;;;2.92;1.92;;;;;;;;;;4990039;28;20030;-72
2022/04/27 11:06:06;;;;;;;4.70;1.90;;;;;;;;;;4991270;28;20019;-72
2022/04/27 11:08:38;;;;;;;2.25;1.83;;;;;;;;;;4986720;28;20033;-72
2022/04/27 11:11:06;;;;;;;3.55;1.85;;;;;;;;;;4989457;28;20017;-72
2022/04/27 11:13:33;;;;;;;3.13;1.80;;;;;;;;;;4990093;28;20036;-72
2022/04/27 11:16:08;;;;;;;3.97;1.90;;;;;;;;;;4996730;28;20030;-72
2022/04/27 11:18:50;;;;;;;1.90;1.65;;;;;;;;;;4988179;28;20691;-72
2022/04/27 11:21:20;;;;;;;2.97;1.50;;;;;;;;;;4987154;28;20076;-72
2022/04/27 11:23:46;;;;;;;;;;;;;;;;;;4992077;28;20022;-72
2022/04/27 11:26:13;;;;;;;2.67;1.95;;;;;;;;;;4991291;28;19906;-72
2022/04/27 11:28:42;;;;;;;2.15;1.70;;;;;;;;;;4991104;28;20046;-72
2022/04/27 11:31:09;;;;;;;4.03;1.80;;;;;;;;;;4991770;28;20019;-72
2022/04/27 11:33:39;;;;;;;2.97;1.92;;;;;;;;;;4996937;28;20042;-72
2022/04/27 11:36:05;;;;;;;2.42;1.85;;;;;;;;;;4986168;28;20025;-72
2022/04/27 11:38:35;;;;;;;3.65;1.70;;;;;;;;;;4990949;28;20073;-72
2022/04/27 11:41:05;;;;;;;2.95;1.83;;;;;;;;;;4991348;28;20029;-72
2022/04/27 11:43:32;;;;;;;2.13;1.85;;;;;;;;;;4991281;28;20475;-72
2022/04/27 11:45:59;;;;;;;4.78;2.20;;;;;;;;;;4989365;28;20054;-72
2022/04/27 11:48:29;;;;;;;2.78;1.92;;;;;;;;;;4990877;28;20048;-72
2022/04/27 11:51:00;;;;;;;3.63;2.15;;;;;;;;;;4992581;28;20019;-72
2022/04/27 11:53:26;;;;;;;2.78;1.92;;;;;;;;;;4994774;28;20037;-73
2022/04/27 11:55:53;;;;;;;2.58;2.20;;;;;;;;;;4994839;28;20495;-72
2022/04/27 11:58:23;;;;;;;3.95;2.08;;;;;;;;;;4994659;28;20499;-72
2022/04/27 12:00:49;;;;;;;6.82;2.42;;;;;;;;;;4994662;28;20038;-72
2022/04/27 12:03:16;;;;;;;2.42;1.90;;;;;;;;;;4994740;28;20015;-72
2022/04/27 12:05:49;;;;;;;3.28;2.15;;;;;;;;;;4989162;28;20030;-72
2022/04/27 12:08:19;;;;;;;2.30;2.10;;;;;;;;;;4990836;28;20041;-74
2022/04/27 12:10:46;;;;;;;4.00;2.08;;;;;;;;;;4978907;28;20494;-72
2022/04/27 12:13:14;;;;;;;2.72;1.70;;;;;;;;;;4994988;28;20023;-72
2022/04/27 12:15:44;;;;;;;2.03;1.70;;;;;;;;;;4994253;28;20034;-72
2022/04/27 12:18:14;;;;;;;3.42;1.70;;;;;;;;;;4994076;28;20044;-72
2022/04/27 12:20:41;;;;;;;4.18;1.85;;;;;;;;;;4994204;28;20030;-72
2022/04/27 12:23:14;;;;;;;3.72;1.88;;;;;;;;;;4994426;28;20034;-72
2022/04/27 12:25:41;;;;;;;8.38;2.22;;;;;;;;;;4994084;28;20024;-72
2022/04/27 12:28:09;;;;;;;5.38;2.03;;;;;;;;;;4994415;28;20034;-72
2022/04/27 12:30:44;;;;;;;5.43;2.10;;;;;;;;;;4993693;28;20030;-72
2022/04/27 12:33:11;;;;;;;6.05;2.08;;;;;;;;;;4993933;28;20022;-72
2022/04/27 12:38:27;;;;;;;3.92;2.20;;;;;;;;;;4993443;28;20033;-74
2022/04/27 12:40:53;;;;;;;3.60;1.98;;;;;;;;;;4993906;28;20053;-74
2022/04/27 12:43:23;;;;;;;3.22;1.90;;;;;;;;;;4993779;28;20018;-74
2022/04/27 12:46:09;;;;;;;2.95;2.10;;;;;;;;;;4994486;28;20092;-75
2022/04/27 12:48:36;;;;;;;3.33;1.80;;;;;;;;;;4994388;28;20022;-74
2022/04/27 12:51:03;;;;;;;4.93;2.20;;;;;;;;;;4993670;28;20018;-74
2022/04/27 12:53:30;;;;;;;4.15;2.00;;;;;;;;;;4993981;28;20027;-74
2022/04/27 12:56:02;;;;;;;2.72;2.17;;;;;;;;;;4994062;28;20018;-74
2022/04/27 12:58:29;;;;;;;3.08;1.90;;;;;;;;;;4994054;28;20038;-74
2022/04/27 13:00:56;;;;;;;3.92;2.00;;;;;;;;;;4994508;28;20042;-74
2022/04/27 13:03:23;;;;;;;4.43;1.90;;;;;;;;;;4992975;28;20019;-74
2022/04/27 13:05:50;;;;;;;3.50;2.00;;;;;;;;;;4993970;28;20036;-74
2022/04/27 13:08:17;;;;;;;4.80;1.92;;;;;;;;;;4993911;28;20028;-74
2022/04/27 13:13:38;;;;;;;4.45;1.80;;;;;;;;;;4991199;28;20066;-74
2022/04/27 13:16:04;;;;;;;3.33;1.70;;;;;;;;;;4994165;28;20037;-73
2022/04/27 13:18:31;;;;;;;2.17;1.70;;;;;;;;;;4993524;28;20045;-74
2022/04/27 13:20:57;;;;;;;4.32;1.80;;;;;;;;;;4995485;28;20076;-74
2022/04/27 13:23:24;;;;;;;3.28;1.85;;;;;;;;;;5008536;28;20018;-73
2022/04/27 13:25:50;;;;;;;7.00;2.40;;;;;;;;;;4993369;28;20430;-73
2022/04/27 13:28:17;;;;;;;3.72;1.90;;;;;;;;;;4989814;28;20030;-74
2022/04/27 13:30:43;;;;;;;7.35;2.35;;;;;;;;;;4988703;28;20027;-73
2022/04/27 13:33:10;;;;;;;6.22;2.30;;;;;;;;;;4989266;28;20018;-73
2022/04/27 13:35:37;;;;;;;5.30;2.08;;;;;;;;;;4988300;28;20486;-74
2022/04/27 13:38:06;;;;;;;4.50;1.75;;;;;;;;;;4991096;28;20019;-73
2022/04/27 13:40:33;;;;;;;3.63;2.00;;;;;;;;;;4991614;28;20038;-73
2022/04/27 13:42:59;;;;;;;3.00;1.85;;;;;;;;;;4993644;28;20056;-74
2022/04/27 13:45:25;;;;;;;1.83;1.67;;;;;;;;;;4992865;28;20052;-73
2022/04/27 13:47:52;;;;;;;2.80;1.70;;;;;;;;;;4993286;28;20036;-73
2022/04/27 13:50:18;;;;;;;3.92;1.55;;;;;;;;;;4993392;28;20022;-73
2022/04/27 13:52:44;;;;;;;6.97;2.17;;;;;;;;;;4992908;28;20037;-73
2022/04/27 13:55:11;;;;;;;6.25;2.00;;;;;;;;;;4993487;28;20026;-74
2022/04/27 13:57:38;;;;;;;1.80;1.60;;;;;;;;;;4987306;28;20034;-73
2022/04/27 14:00:05;;;;;;;4.72;2.80;;;;;;;;;;4993098;28;20037;-73
2022/04/27 14:02:33;;;;;;;3.55;1.60;;;;;;;;;;5008138;28;20022;-73
2022/04/27 14:05:00;;;;;;;4.50;1.75;;;;;;;;;;4991378;28;20033;-74
2022/04/27 14:07:27;;;;;;;3.10;1.52;;;;;;;;;;4990404;28;20037;-73
2022/04/27 14:09:54;;;;;;;4.00;2.00;;;;;;;;;;4988592;28;20026;-73
2022/04/27 14:15:06;;;;;;;3.33;1.83;;;;;;;;;;4987476;28;20026;-73
2022/04/27 14:20:17;;;;;;;3.53;1.70;;;;;;;;;;4985506;28;20068;-73
2022/04/27 14:22:43;;;;;;;2.45;1.98;;;;;;;;;;4992424;28;20018;-73
2022/04/27 14:25:11;;;;;;;3.00;1.70;;;;;;;;;;4992756;28;20032;-73
2022/04/27 14:27:37;;;;;;;4.53;2.50;;;;;;;;;;4992461;28;20103;-73
2022/04/27 14:30:04;;;;;;;3.03;2.35;;;;;;;;;;4992560;28;20027;-73
2022/04/27 14:32:32;;;;;;;4.68;2.20;;;;;;;;;;4992483;28;20018;-74
2022/04/27 14:34:59;;;;;;;3.85;2.05;;;;;;;;;;4992309;28;20470;-74
2022/04/27 14:37:25;;;;;;;4.53;2.10;;;;;;;;;;4992333;28;20018;-73
2022/04/27 14:39:52;;;;;;;7.07;2.17;;;;;;;;;;4992486;28;20042;-73
2022/04/27 14:42:19;;;;;;;5.25;2.00;;;;;;;;;;4992367;28;20029;-73
2022/04/27 14:44:45;;;;;;;5.25;1.92;;;;;;;;;;4992017;28;20034;-73
2022/04/27 14:47:12;;;;;;;2.63;1.90;;;;;;;;;;4992160;28;20014;-73
2022/04/27 14:49:38;;;;;;;4.30;2.17;;;;;;;;;;4992150;28;20038;-73
2022/04/27 14:52:07;;;;;;;7.63;2.60;;;;;;;;;;4991178;28;20034;-73
2022/04/27 14:54:33;;;;;;;5.53;1.90;;;;;;;;;;4991720;28;20022;-73
2022/04/27 14:57:00;;;;;;;2.88;2.00;;;;;;;;;;4991920;28;20026;-73
2022/04/27 14:59:26;;;;;;;4.28;2.22;;;;;;;;;;4991856;28;20034;-73
2022/04/27 15:01:52;;;;;;;3.72;2.30;;;;;;;;;;4992122;28;20018;-73
2022/04/27 15:04:19;;;;;;;3.70;2.35;;;;;;;;;;4992273;28;20365;-73
2022/04/27 15:06:45;;;;;;;5.00;1.90;;;;;;;;;;4992247;28;20026;-73
2022/04/27 15:09:11;;;;;;;5.22;2.83;;;;;;;;;;4991610;28;20022;-73
2022/04/27 15:11:38;;;;;;;2.67;1.85;;;;;;;;;;4991729;28;20495;-74